createdAt,value
2017-12-30T00:01:16.791Z,92.04
2017-12-30T00:03:45.681Z,91.63
2017-12-30T00:06:14.955Z,91.20
2017-12-30T00:08:43.527Z,91.18
2017-12-30T00:11:12.303Z,91.03
2017-12-30T00:13:41.394Z,91.07
2017-12-30T00:16:10.088Z,91.10
2017-12-30T00:18:39.435Z,90.96
2017-12-30T00:21:08.584Z,91.06
2017-12-30T00:23:36.969Z,91.19
2017-12-30T00:26:05.318Z,91.04
2017-12-30T00:28:34.230Z,90.80
2017-12-30T00:31:03.276Z,90.94
2017-12-30T00:33:31.629Z,90.76
2017-12-30T00:36:00.362Z,90.63
2017-12-30T00:38:28.731Z,90.82
2017-12-30T00:40:57.217Z,91.01
2017-12-30T00:43:26.351Z,91.41
2017-12-30T00:45:55.391Z,91.57
2017-12-30T00:48:23.766Z,91.67
2017-12-30T00:50:52.755Z,91.56
2017-12-30T00:53:22.044Z,91.63
2017-12-30T00:55:50.935Z,91.70
2017-12-30T00:58:20.000Z,91.55
2017-12-30T01:00:50.135Z,90.62
2017-12-30T01:03:18.536Z,90.69
2017-12-30T01:05:47.313Z,90.65
2017-12-30T01:08:15.676Z,90.85
2017-12-30T01:10:44.180Z,90.88
2017-12-30T01:13:13.119Z,91.34
2017-12-30T01:15:42.109Z,91.49
2017-12-30T01:18:12.917Z,91.53
2017-12-30T01:20:41.853Z,91.22
2017-12-30T01:23:10.979Z,91.04
2017-12-30T01:25:41.046Z,91.41
2017-12-30T01:28:13.430Z,91.73
2017-12-30T01:30:42.379Z,91.96
2017-12-30T01:33:14.710Z,92.26
2017-12-30T01:35:46.275Z,92.16
2017-12-30T01:38:19.636Z,92.96
2017-12-30T01:40:48.604Z,93.40
2017-12-30T01:43:19.219Z,93.52
2017-12-30T01:45:47.599Z,93.55
2017-12-30T01:48:16.262Z,93.65
2017-12-30T01:50:45.117Z,93.89
2017-12-30T01:53:14.069Z,94.02
2017-12-30T01:55:42.384Z,94.17
2017-12-30T01:58:11.497Z,94.08
2017-12-30T02:00:40.681Z,93.86
2017-12-30T02:03:09.221Z,93.37
2017-12-30T02:05:43.355Z,93.19
2017-12-30T02:08:11.731Z,92.94
2017-12-30T02:10:40.168Z,92.84
2017-12-30T02:13:08.479Z,92.64
2017-12-30T02:15:37.048Z,92.37
2017-12-30T02:18:06.011Z,92.57
2017-12-30T02:20:34.913Z,92.96
2017-12-30T02:23:03.576Z,93.04
2017-12-30T02:25:32.314Z,92.86
2017-12-30T02:28:01.528Z,92.45
2017-12-30T02:30:31.310Z,92.11
2017-12-30T02:32:59.977Z,91.80
2017-12-30T02:35:29.640Z,91.91
2017-12-30T02:37:58.732Z,92.29
2017-12-30T02:40:28.280Z,92.19
2017-12-30T02:42:57.611Z,92.13
2017-12-30T02:45:27.495Z,92.23
2017-12-30T02:47:55.967Z,92.15
2017-12-30T02:50:24.877Z,92.12
2017-12-30T02:52:54.448Z,92.19
2017-12-30T02:55:23.965Z,92.58
2017-12-30T02:57:52.880Z,92.63
2017-12-30T03:00:21.299Z,92.43
2017-12-30T03:02:49.749Z,92.32
2017-12-30T03:05:18.251Z,92.26
2017-12-30T03:07:47.074Z,92.34
2017-12-30T03:10:17.046Z,92.29
2017-12-30T03:12:46.741Z,92.22
2017-12-30T03:15:15.273Z,92.14
2017-12-30T03:17:44.874Z,92.06
2017-12-30T03:20:13.223Z,92.12
2017-12-30T03:22:41.876Z,92.15
2017-12-30T03:25:10.611Z,91.97
2017-12-30T03:27:39.017Z,91.96
2017-12-30T03:30:07.401Z,91.93
2017-12-30T03:32:36.412Z,92.14
2017-12-30T03:35:05.314Z,92.30
2017-12-30T03:37:34.466Z,92.26
2017-12-30T03:40:03.016Z,92.32
2017-12-30T03:42:31.784Z,92.26
2017-12-30T03:45:00.099Z,92.21
2017-12-30T03:47:29.300Z,92.15
2017-12-30T03:49:58.632Z,92.27
2017-12-30T03:52:27.513Z,92.45
2017-12-30T03:54:56.383Z,92.31
2017-12-30T03:57:24.752Z,92.27
2017-12-30T03:59:53.067Z,92.36
2017-12-30T04:02:21.960Z,92.48
2017-12-30T04:04:51.649Z,92.57
2017-12-30T04:07:20.436Z,92.60
2017-12-30T04:09:48.838Z,92.71
2017-12-30T04:12:17.821Z,92.64
2017-12-30T04:14:46.908Z,92.46
2017-12-30T04:17:15.576Z,92.29
2017-12-30T04:19:44.291Z,92.17
2017-12-30T04:22:12.612Z,92.27
2017-12-30T04:24:41.665Z,92.30
2017-12-30T04:27:10.812Z,92.19
2017-12-30T04:29:39.806Z,92.25
2017-12-30T04:32:08.485Z,92.28
2017-12-30T04:34:37.056Z,92.44
2017-12-30T04:37:05.395Z,92.53
2017-12-30T04:39:33.956Z,92.66
2017-12-30T04:42:03.441Z,92.73
2017-12-30T04:44:31.761Z,92.82
2017-12-30T04:47:00.880Z,93.10
2017-12-30T04:49:29.968Z,93.35
2017-12-30T04:51:59.365Z,93.64
2017-12-30T04:54:28.151Z,93.83
2017-12-30T04:56:56.491Z,93.85
2017-12-30T04:59:25.187Z,93.91
2017-12-30T05:01:53.814Z,93.88
2017-12-30T05:04:22.780Z,93.67
2017-12-30T05:06:51.152Z,93.62
2017-12-30T05:09:20.505Z,93.66
2017-12-30T05:11:49.583Z,93.74
2017-12-30T05:14:18.620Z,93.81
2017-12-30T05:16:47.024Z,93.83
2017-12-30T05:19:15.736Z,93.80
2017-12-30T05:21:45.637Z,93.71
2017-12-30T05:24:14.369Z,93.60
2017-12-30T05:26:43.265Z,93.28
2017-12-30T05:29:11.692Z,93.65
2017-12-30T05:31:40.253Z,93.77
2017-12-30T05:34:08.938Z,93.63
2017-12-30T05:36:37.272Z,93.55
2017-12-30T05:39:06.350Z,93.47
2017-12-30T05:41:34.686Z,92.86
2017-12-30T05:44:03.104Z,92.80
2017-12-30T05:46:32.787Z,92.70
2017-12-30T05:49:01.573Z,92.73
2017-12-30T05:51:30.128Z,92.58
2017-12-30T05:53:59.189Z,91.64
2017-12-30T05:56:28.167Z,91.88
2017-12-30T05:58:56.761Z,91.94
2017-12-30T06:01:25.860Z,92.48
2017-12-30T06:03:54.254Z,92.75
2017-12-30T06:06:22.596Z,93.16
2017-12-30T06:08:50.927Z,93.22
2017-12-30T06:11:19.796Z,92.68
2017-12-30T06:13:48.836Z,92.95
2017-12-30T06:16:17.161Z,93.06
2017-12-30T06:18:45.533Z,92.86
2017-12-30T06:21:14.584Z,93.31
2017-12-30T06:23:43.192Z,93.56
2017-12-30T06:26:11.801Z,93.51
2017-12-30T06:28:41.010Z,93.39
2017-12-30T06:31:09.588Z,93.15
2017-12-30T06:33:38.226Z,93.30
2017-12-30T06:36:07.476Z,93.56
2017-12-30T06:38:35.788Z,93.67
2017-12-30T06:41:04.346Z,93.37
2017-12-30T06:43:32.852Z,93.30
2017-12-30T06:46:02.273Z,93.21
2017-12-30T06:48:30.603Z,93.01
2017-12-30T06:50:59.156Z,92.18
2017-12-30T06:53:27.860Z,92.14
2017-12-30T06:55:56.999Z,91.67
2017-12-30T06:58:25.436Z,90.74
2017-12-30T07:00:54.235Z,90.65
2017-12-30T07:03:22.657Z,90.33
2017-12-30T07:05:51.049Z,90.25
2017-12-30T07:08:19.781Z,90.41
2017-12-30T07:10:48.464Z,90.76
2017-12-30T07:13:18.368Z,90.93
2017-12-30T07:15:46.680Z,91.24
2017-12-30T07:18:14.997Z,91.26
2017-12-30T07:20:43.985Z,91.43
2017-12-30T07:23:12.970Z,91.53
2017-12-30T07:25:41.309Z,91.31
2017-12-30T07:28:10.413Z,91.35
2017-12-30T07:30:38.724Z,92.58
2017-12-30T07:33:07.041Z,93.23
2017-12-30T07:35:35.403Z,93.08
2017-12-30T07:38:03.728Z,92.85
2017-12-30T07:40:32.036Z,92.45
2017-12-30T07:43:00.405Z,92.06
2017-12-30T07:45:28.720Z,92.00
2017-12-30T07:47:57.040Z,92.12
2017-12-30T07:50:25.409Z,92.03
2017-12-30T07:52:55.551Z,92.60
2017-12-30T07:55:23.855Z,93.06
2017-12-30T07:57:52.303Z,92.98
2017-12-30T08:00:20.632Z,92.46
2017-12-30T08:02:49.013Z,92.09
2017-12-30T08:05:17.831Z,91.67
2017-12-30T08:07:47.012Z,90.98
2017-12-30T08:10:16.108Z,90.66
2017-12-30T08:12:44.745Z,90.77
2017-12-30T08:15:13.476Z,90.99
2017-12-30T08:17:42.565Z,90.93
2017-12-30T08:20:11.410Z,90.83
2017-12-30T08:22:39.768Z,90.92
2017-12-30T08:25:08.081Z,91.06
2017-12-30T08:27:36.492Z,91.10
2017-12-30T08:30:05.440Z,91.14
2017-12-30T08:32:33.864Z,91.02
2017-12-30T08:35:02.325Z,91.08
2017-12-30T08:37:30.648Z,90.99
2017-12-30T08:39:59.535Z,90.80
2017-12-30T08:42:28.495Z,91.10
2017-12-30T08:44:56.819Z,91.39
2017-12-30T08:47:25.980Z,91.27
2017-12-30T08:49:54.733Z,90.55
2017-12-30T08:52:23.258Z,89.87
2017-12-30T08:54:52.378Z,89.54
2017-12-30T08:57:20.801Z,89.11
2017-12-30T08:59:49.122Z,88.87
2017-12-30T09:02:18.201Z,88.75
2017-12-30T09:04:47.253Z,88.43
2017-12-30T09:07:15.560Z,88.09
2017-12-30T09:09:44.788Z,87.83
2017-12-30T09:12:13.867Z,87.09
2017-12-30T09:14:42.184Z,87.18
2017-12-30T09:17:11.648Z,87.59
2017-12-30T09:19:41.832Z,86.99
2017-12-30T09:22:10.833Z,86.19
2017-12-30T09:24:39.325Z,86.05
2017-12-30T09:27:07.672Z,85.59
2017-12-30T09:29:36.404Z,85.84
2017-12-30T09:32:05.166Z,85.77
2017-12-30T09:34:34.299Z,85.68
2017-12-30T09:37:02.752Z,84.99
2017-12-30T09:39:31.563Z,84.81
2017-12-30T09:42:01.410Z,84.73
2017-12-30T09:44:30.680Z,84.03
2017-12-30T09:46:59.076Z,84.12
2017-12-30T09:49:28.867Z,83.36
2017-12-30T09:51:57.244Z,84.05
2017-12-30T09:54:26.245Z,83.90
2017-12-30T09:56:54.724Z,84.24
2017-12-30T09:59:24.315Z,84.71
2017-12-30T10:04:28.363Z,84.08
2017-12-30T10:06:56.939Z,83.40
2017-12-30T10:09:26.407Z,82.77
2017-12-30T10:11:55.657Z,82.67
2017-12-30T10:14:23.980Z,82.39
2017-12-30T10:16:52.439Z,82.00
2017-12-30T10:19:21.543Z,82.84
2017-12-30T10:21:49.839Z,82.81
2017-12-30T10:24:18.208Z,82.23
2017-12-30T10:26:47.824Z,82.49
2017-12-30T10:29:16.891Z,81.52
2017-12-30T10:31:45.263Z,80.94
2017-12-30T10:34:14.451Z,80.83
2017-12-30T10:36:43.443Z,80.51
2017-12-30T10:39:12.576Z,81.13
2017-12-30T10:41:41.578Z,80.32
2017-12-30T10:44:09.879Z,80.23
2017-12-30T10:46:38.912Z,79.37
2017-12-30T10:49:07.280Z,81.29
2017-12-30T10:51:36.356Z,79.84
2017-12-30T10:54:04.904Z,80.18
2017-12-30T10:56:33.968Z,81.90
2017-12-30T10:59:02.936Z,80.20
2017-12-30T11:01:32.658Z,80.78
2017-12-30T11:04:03.481Z,80.91
2017-12-30T11:06:32.591Z,81.40
2017-12-30T11:09:01.677Z,79.22
2017-12-30T11:11:30.875Z,80.81
2017-12-30T11:13:59.791Z,80.79
2017-12-30T11:16:29.591Z,81.89
2017-12-30T11:18:58.148Z,82.41
2017-12-30T11:21:26.723Z,81.37
2017-12-30T11:23:56.232Z,81.89
2017-12-30T11:26:25.318Z,81.79
2017-12-30T11:28:54.212Z,81.92
2017-12-30T11:31:22.990Z,81.69
2017-12-30T11:33:51.295Z,80.87
2017-12-30T11:36:20.164Z,80.49
2017-12-30T11:38:49.173Z,81.37
2017-12-30T11:41:17.705Z,80.72
2017-12-30T11:43:47.436Z,81.35
2017-12-30T11:46:16.423Z,81.77
2017-12-30T11:48:44.740Z,81.05
2017-12-30T11:51:14.047Z,80.96
2017-12-30T11:53:42.867Z,80.39
2017-12-30T11:56:11.179Z,81.62
2017-12-30T11:58:40.295Z,80.70
2017-12-30T12:01:08.599Z,81.03
2017-12-30T12:03:37.955Z,80.44
2017-12-30T12:06:06.387Z,80.51
2017-12-30T12:08:35.463Z,80.33
2017-12-30T12:11:03.773Z,79.88
2017-12-30T12:13:33.524Z,80.64
2017-12-30T12:16:02.279Z,80.77
2017-12-30T12:18:31.400Z,79.36
2017-12-30T12:20:59.755Z,79.66
2017-12-30T12:23:28.059Z,79.12
2017-12-30T12:25:56.475Z,79.41
2017-12-30T12:28:25.459Z,81.40
2017-12-30T12:30:53.794Z,81.22
2017-12-30T12:33:22.487Z,82.94
2017-12-30T12:35:50.992Z,82.34
2017-12-30T12:38:19.339Z,82.24
2017-12-30T12:40:48.329Z,81.58
2017-12-30T12:43:18.928Z,82.22
2017-12-30T12:45:47.446Z,82.65
2017-12-30T12:48:16.420Z,82.51
2017-12-30T12:50:44.787Z,82.68
2017-12-30T12:53:13.876Z,82.81
2017-12-30T12:55:43.011Z,83.36
2017-12-30T12:58:11.387Z,82.26
2017-12-30T13:00:39.704Z,82.28
2017-12-30T13:03:08.020Z,81.79
2017-12-30T13:05:36.799Z,81.48
2017-12-30T13:08:06.637Z,80.50
2017-12-30T13:10:35.049Z,82.23
2017-12-30T13:13:03.762Z,81.92
2017-12-30T13:15:32.495Z,82.04
2017-12-30T13:18:01.361Z,81.73
2017-12-30T13:20:29.776Z,82.63
2017-12-30T13:22:58.840Z,84.35
2017-12-30T13:25:27.236Z,83.24
2017-12-30T13:27:55.612Z,83.91
2017-12-30T13:30:24.562Z,84.46
2017-12-30T13:32:52.936Z,84.70
2017-12-30T13:35:21.251Z,84.55
2017-12-30T13:37:50.163Z,83.87
2017-12-30T13:40:18.612Z,84.49
2017-12-30T13:42:47.522Z,84.26
2017-12-30T13:45:16.067Z,84.31
2017-12-30T13:47:44.508Z,84.56
2017-12-30T13:50:13.103Z,84.08
2017-12-30T13:52:41.507Z,83.95
2017-12-30T13:55:09.844Z,83.80
2017-12-30T13:57:38.816Z,83.55
2017-12-30T14:00:08.084Z,84.30
2017-12-30T14:02:37.176Z,84.76
2017-12-30T14:05:05.967Z,84.70
2017-12-30T14:07:34.371Z,84.93
2017-12-30T14:10:02.739Z,84.52
2017-12-30T14:12:31.239Z,84.62
2017-12-30T14:15:00.061Z,83.70
2017-12-30T14:17:28.464Z,83.53
2017-12-30T14:19:57.405Z,83.61
2017-12-30T14:22:25.728Z,83.31
2017-12-30T14:24:54.642Z,83.15
2017-12-30T14:27:23.757Z,83.54
2017-12-30T14:29:52.055Z,82.76
2017-12-30T14:32:20.499Z,83.07
2017-12-30T14:34:49.580Z,83.09
2017-12-30T14:37:18.780Z,82.69
2017-12-30T14:39:47.159Z,82.73
2017-12-30T14:42:15.941Z,82.78
2017-12-30T14:44:44.710Z,82.85
2017-12-30T14:47:13.082Z,82.72
2017-12-30T14:49:41.648Z,82.82
2017-12-30T14:52:11.553Z,83.13
2017-12-30T14:54:39.955Z,82.90
2017-12-30T14:57:09.049Z,83.35
2017-12-30T14:59:37.889Z,83.47
2017-12-30T15:02:06.359Z,83.24
2017-12-30T15:04:35.255Z,84.23
2017-12-30T15:07:04.504Z,83.89
2017-12-30T15:09:32.947Z,83.40
2017-12-30T15:12:02.032Z,83.15
2017-12-30T15:14:30.352Z,83.21
2017-12-30T15:16:59.315Z,83.32
2017-12-30T15:19:27.919Z,83.46
2017-12-30T15:21:56.236Z,83.68
2017-12-30T15:24:24.956Z,83.86
2017-12-30T15:26:53.480Z,84.03
2017-12-30T15:29:22.467Z,84.18
2017-12-30T15:31:56.405Z,85.11
2017-12-30T15:34:25.359Z,85.33
2017-12-30T15:36:53.894Z,85.64
2017-12-30T15:39:22.275Z,86.00
2017-12-30T15:41:56.155Z,86.42
2017-12-30T15:44:25.077Z,86.51
2017-12-30T15:46:53.568Z,86.30
2017-12-30T15:49:22.556Z,86.07
2017-12-30T15:51:50.911Z,86.22
2017-12-30T15:54:19.564Z,86.21
2017-12-30T15:56:48.715Z,85.66
2017-12-30T15:59:17.176Z,85.31
2017-12-30T16:01:45.475Z,85.02
2017-12-30T16:04:13.848Z,85.01
2017-12-30T16:06:42.636Z,85.21
2017-12-30T16:09:11.339Z,85.32
2017-12-30T16:11:40.408Z,85.74
2017-12-30T16:14:09.395Z,85.99
2017-12-30T16:16:37.795Z,86.33
2017-12-30T16:19:06.788Z,86.13
2017-12-30T16:21:35.491Z,86.23
2017-12-30T16:24:03.850Z,86.55
2017-12-30T16:26:32.300Z,86.58
2017-12-30T16:29:01.039Z,86.60
2017-12-30T16:31:30.181Z,86.89
2017-12-30T16:33:59.718Z,87.15
2017-12-30T16:36:28.071Z,87.54
2017-12-30T16:38:57.724Z,87.25
2017-12-30T16:41:26.234Z,87.06
2017-12-30T16:43:55.145Z,87.31
2017-12-30T16:46:23.498Z,87.29
2017-12-30T16:48:51.931Z,87.41
2017-12-30T16:51:20.318Z,87.43
2017-12-30T16:53:49.528Z,87.62
2017-12-30T16:56:19.128Z,87.43
2017-12-30T16:58:47.781Z,87.33
2017-12-30T17:01:16.727Z,87.20
2017-12-30T17:03:45.308Z,87.05
2017-12-30T17:06:14.849Z,87.01
2017-12-30T17:08:43.719Z,87.10
2017-12-30T17:11:12.527Z,86.65
2017-12-30T17:13:41.368Z,86.38
2017-12-30T17:16:10.131Z,85.91
2017-12-30T17:18:39.271Z,85.04
2017-12-30T17:21:08.327Z,84.62
2017-12-30T17:23:36.863Z,84.25
2017-12-30T17:26:05.691Z,83.95
2017-12-30T17:28:34.089Z,83.22
2017-12-30T17:31:02.507Z,82.98
2017-12-30T17:33:31.512Z,82.85
2017-12-30T17:36:00.359Z,82.49
2017-12-30T17:38:28.733Z,82.18
2017-12-30T17:40:57.241Z,81.48
2017-12-30T17:43:25.779Z,81.21
2017-12-30T17:45:55.962Z,81.98
2017-12-30T17:48:24.972Z,81.65
2017-12-30T17:50:54.198Z,81.39
2017-12-30T17:53:22.565Z,81.20
2017-12-30T17:55:50.976Z,81.26
2017-12-30T17:58:19.726Z,81.97
2017-12-30T18:00:49.080Z,82.14
2017-12-30T18:03:17.396Z,81.45
2017-12-30T18:05:45.838Z,81.42
2017-12-30T18:08:15.411Z,81.78
2017-12-30T18:10:45.567Z,81.59
2017-12-30T18:13:14.683Z,81.47
2017-12-30T18:15:43.184Z,81.58
2017-12-30T18:18:11.613Z,81.99
2017-12-30T18:20:40.076Z,82.18
2017-12-30T18:23:08.671Z,82.72
2017-12-30T18:25:37.051Z,82.57
2017-12-30T18:28:06.535Z,83.10
2017-12-30T18:30:35.320Z,83.29
2017-12-30T18:33:04.883Z,83.79
2017-12-30T18:35:33.837Z,84.11
2017-12-30T18:38:02.985Z,83.89
2017-12-30T18:40:31.377Z,83.93
2017-12-30T18:43:00.620Z,84.17
2017-12-30T18:45:29.711Z,84.01
2017-12-30T18:47:58.447Z,84.01
2017-12-30T18:50:26.975Z,84.52
2017-12-30T18:52:55.346Z,84.98
2017-12-30T18:55:23.788Z,85.36
2017-12-30T18:57:52.544Z,85.28
2017-12-30T19:00:20.986Z,85.62
2017-12-30T19:02:49.557Z,85.65
2017-12-30T19:05:17.914Z,85.28
2017-12-30T19:07:47.350Z,85.29
2017-12-30T19:10:16.434Z,85.62
2017-12-30T19:12:44.930Z,85.78
2017-12-30T19:15:14.031Z,85.96
2017-12-30T19:17:43.250Z,86.11
2017-12-30T19:20:11.817Z,86.53
2017-12-30T19:22:40.496Z,86.75
2017-12-30T19:25:09.755Z,86.78
2017-12-30T19:27:38.323Z,86.74
2017-12-30T19:30:07.962Z,86.22
2017-12-30T19:32:36.495Z,86.24
2017-12-30T19:35:06.274Z,86.29
2017-12-30T19:37:36.063Z,86.18
2017-12-30T19:40:04.611Z,86.08
2017-12-30T19:42:34.088Z,86.20
2017-12-30T19:45:03.356Z,86.12
2017-12-30T19:47:32.297Z,86.14
2017-12-30T19:50:02.299Z,86.18
2017-12-30T19:52:31.297Z,86.08
2017-12-30T19:55:00.409Z,86.56
2017-12-30T19:57:29.607Z,87.01
2017-12-30T19:59:58.570Z,87.30
2017-12-30T20:02:27.846Z,87.67
2017-12-30T20:04:56.427Z,88.23
2017-12-30T20:07:25.858Z,88.70
2017-12-30T20:09:54.950Z,89.15
2017-12-30T20:12:24.117Z,89.66
2017-12-30T20:14:52.523Z,89.85
2017-12-30T20:17:22.986Z,90.02
2017-12-30T20:19:51.387Z,90.25
2017-12-30T20:22:20.436Z,90.62
2017-12-30T20:24:48.894Z,91.00
2017-12-30T20:27:17.721Z,90.91
2017-12-30T20:29:46.132Z,90.97
2017-12-30T20:32:15.252Z,91.11
2017-12-30T20:34:45.064Z,91.15
2017-12-30T20:37:13.442Z,90.85
2017-12-30T20:39:43.070Z,91.09
2017-12-30T20:42:12.430Z,91.17
2017-12-30T20:44:41.474Z,91.26
2017-12-30T20:47:10.783Z,91.36
2017-12-30T20:49:39.488Z,91.45
2017-12-30T20:52:08.113Z,91.45
2017-12-30T20:54:37.010Z,91.22
2017-12-30T20:57:05.438Z,91.16
2017-12-30T20:59:34.574Z,91.35
2017-12-30T21:02:03.551Z,91.32
2017-12-30T21:04:32.667Z,91.28
2017-12-30T21:07:01.750Z,91.46
2017-12-30T21:09:30.843Z,91.50
2017-12-30T21:11:59.754Z,91.47
2017-12-30T21:14:28.143Z,91.57
2017-12-30T21:16:57.028Z,91.46
2017-12-30T21:19:25.708Z,91.50
2017-12-30T21:21:54.093Z,91.50
2017-12-30T21:24:23.077Z,91.58
2017-12-30T21:26:52.166Z,91.71
2017-12-30T21:29:21.032Z,91.79
2017-12-30T21:31:49.418Z,91.89
2017-12-30T21:34:18.543Z,92.01
2017-12-30T21:36:47.627Z,91.91
2017-12-30T21:39:16.555Z,91.88
2017-12-30T21:41:45.206Z,91.90
2017-12-30T21:44:14.054Z,91.80
2017-12-30T21:46:43.254Z,91.80
2017-12-30T21:49:11.714Z,91.68
2017-12-30T21:51:40.093Z,91.87
2017-12-30T21:54:09.378Z,91.82
2017-12-30T21:56:39.046Z,91.85
2017-12-30T21:59:07.414Z,91.86
2017-12-30T22:01:36.888Z,91.76
2017-12-30T22:04:05.339Z,91.78
2017-12-30T22:06:34.272Z,91.79
2017-12-30T22:09:04.051Z,91.70
2017-12-30T22:11:32.563Z,91.58
2017-12-30T22:14:00.963Z,91.52
2017-12-30T22:16:29.918Z,91.47
2017-12-30T22:18:58.486Z,91.35
2017-12-30T22:21:27.435Z,91.24
2017-12-30T22:23:56.567Z,91.29
2017-12-30T22:26:25.525Z,91.18
2017-12-30T22:28:54.131Z,91.20
2017-12-30T22:31:22.575Z,91.03
2017-12-30T22:33:52.230Z,90.97
2017-12-30T22:36:20.591Z,91.05
2017-12-30T22:38:49.512Z,90.92
2017-12-30T22:41:18.614Z,91.01
2017-12-30T22:43:47.843Z,90.93
2017-12-30T22:46:16.924Z,90.79
2017-12-30T22:48:45.332Z,90.59
2017-12-30T22:51:14.100Z,90.56
2017-12-30T22:53:42.490Z,90.54
2017-12-30T22:56:11.526Z,90.44
2017-12-30T22:58:40.024Z,90.09
2017-12-30T23:01:08.455Z,90.01
2017-12-30T23:03:38.299Z,89.58
2017-12-30T23:06:06.971Z,89.44
2017-12-30T23:08:36.174Z,89.18
2017-12-30T23:11:05.422Z,89.17
2017-12-30T23:13:34.091Z,88.67
2017-12-30T23:16:02.600Z,88.56
2017-12-30T23:18:31.784Z,88.19
2017-12-30T23:21:00.137Z,88.15
2017-12-30T23:23:29.059Z,88.05
2017-12-30T23:25:58.318Z,88.14
2017-12-30T23:28:26.708Z,88.43
2017-12-30T23:30:56.388Z,88.27
2017-12-30T23:33:25.437Z,88.54
2017-12-30T23:35:54.719Z,88.70
2017-12-30T23:38:24.550Z,89.15
2017-12-30T23:40:53.547Z,88.91
2017-12-30T23:43:22.647Z,88.99
2017-12-30T23:45:51.499Z,88.85
2017-12-30T23:48:20.010Z,88.82
2017-12-30T23:50:49.156Z,88.58
2017-12-30T23:53:18.410Z,88.55
2017-12-30T23:55:47.298Z,88.28
2017-12-30T23:58:16.453Z,88.44
